sensor_id;sensor_type;location;lat;lon;timestamp;temperature;humidity
292;DHT22;23311;48.776;9.162;2023-04-19T00:00:52;10.70;95.50
292;DHT22;23311;48.776;9.162;2023-04-19T00:03:20;10.70;95.50
292;DHT22;23311;48.776;9.162;2023-04-19T00:05:50;10.80;95.50
292;DHT22;23311;48.776;9.162;2023-04-19T00:08:20;10.70;95.50
292;DHT22;23311;48.776;9.162;2023-04-19T00:10:49;10.70;95.50
292;DHT22;23311;48.776;9.162;2023-04-19T00:13:17;10.70;95.50
292;DHT22;23311;48.776;9.162;2023-04-19T00:15:46;10.70;95.50
292;DHT22;23311;48.776;9.162;2023-04-19T00:18:14;10.70;95.50
292;DHT22;23311;48.776;9.162;2023-04-19T00:20:43;10.70;95.50
292;DHT22;23311;48.776;9.162;2023-04-19T00:23:11;10.60;95.50
292;DHT22;23311;48.776;9.162;2023-04-19T00:25:39;10.60;95.50
292;DHT22;23311;48.776;9.162;2023-04-19T00:28:09;10.50;95.50
292;DHT22;23311;48.776;9.162;2023-04-19T00:30:37;10.60;95.50
292;DHT22;23311;48.776;9.162;2023-04-19T00:33:05;10.60;95.50
292;DHT22;23311;48.776;9.162;2023-04-19T00:35:39;10.60;95.50
292;DHT22;23311;48.776;9.162;2023-04-19T00:38:07;10.60;95.50
292;DHT22;23311;48.776;9.162;2023-04-19T00:40:36;10.60;95.50
292;DHT22;23311;48.776;9.162;2023-04-19T00:43:04;10.50;95.50
292;DHT22;23311;48.776;9.162;2023-04-19T00:45:34;10.50;95.50
292;DHT22;23311;48.776;9.162;2023-04-19T00:48:03;10.50;95.50
292;DHT22;23311;48.776;9.162;2023-04-19T00:50:32;10.40;95.50
292;DHT22;23311;48.776;9.162;2023-04-19T00:53:02;10.40;95.50
292;DHT22;23311;48.776;9.162;2023-04-19T00:55:37;10.40;95.50
292;DHT22;23311;48.776;9.162;2023-04-19T00:58:07;10.40;95.50
292;DHT22;23311;48.776;9.162;2023-04-19T01:00:37;10.50;95.50
292;DHT22;23311;48.776;9.162;2023-04-19T01:03:05;10.50;95.50
292;DHT22;23311;48.776;9.162;2023-04-19T01:05:35;10.40;95.50
292;DHT22;23311;48.776;9.162;2023-04-19T01:08:03;10.50;95.50
292;DHT22;23311;48.776;9.162;2023-04-19T01:10:31;10.40;95.50
292;DHT22;23311;48.776;9.162;2023-04-19T01:12:59;10.40;95.50
292;DHT22;23311;48.776;9.162;2023-04-19T01:15:27;10.40;95.50
292;DHT22;23311;48.776;9.162;2023-04-19T01:17:58;10.40;95.50
292;DHT22;23311;48.776;9.162;2023-04-19T01:20:26;10.30;95.50
292;DHT22;23311;48.776;9.162;2023-04-19T01:22:56;10.30;95.50
292;DHT22;23311;48.776;9.162;2023-04-19T01:25:24;10.30;95.50
292;DHT22;23311;48.776;9.162;2023-04-19T01:27:52;10.30;95.50
292;DHT22;23311;48.776;9.162;2023-04-19T01:30:20;10.20;95.50
292;DHT22;23311;48.776;9.162;2023-04-19T01:32:48;10.20;95.50
292;DHT22;23311;48.776;9.162;2023-04-19T01:35:17;10.30;95.50
292;DHT22;23311;48.776;9.162;2023-04-19T01:37:45;10.30;95.50
292;DHT22;23311;48.776;9.162;2023-04-19T01:40:15;10.30;95.50
292;DHT22;23311;48.776;9.162;2023-04-19T01:42:43;10.30;95.50
292;DHT22;23311;48.776;9.162;2023-04-19T01:45:11;10.30;95.50
292;DHT22;23311;48.776;9.162;2023-04-19T01:47:39;10.30;95.50
292;DHT22;23311;48.776;9.162;2023-04-19T01:50:08;10.20;95.50
292;DHT22;23311;48.776;9.162;2023-04-19T01:52:36;10.30;95.50
292;DHT22;23311;48.776;9.162;2023-04-19T01:55:05;10.20;95.50
292;DHT22;23311;48.776;9.162;2023-04-19T01:57:34;10.20;95.50
292;DHT22;23311;48.776;9.162;2023-04-19T02:00:03;10.20;95.50
292;DHT22;23311;48.776;9.162;2023-04-19T02:02:35;10.20;95.50
292;DHT22;23311;48.776;9.162;2023-04-19T02:05:05;10.20;95.50
292;DHT22;23311;48.776;9.162;2023-04-19T02:07:34;10.10;95.50
292;DHT22;23311;48.776;9.162;2023-04-19T02:10:02;10.10;95.50
292;DHT22;23311;48.776;9.162;2023-04-19T02:12:34;10.10;95.50
292;DHT22;23311;48.776;9.162;2023-04-19T02:15:03;10.00;95.50
292;DHT22;23311;48.776;9.162;2023-04-19T02:17:31;10.00;95.50
292;DHT22;23311;48.776;9.162;2023-04-19T02:19:59;10.00;95.50
292;DHT22;23311;48.776;9.162;2023-04-19T02:22:30;10.00;95.50
292;DHT22;23311;48.776;9.162;2023-04-19T02:24:59;10.00;95.50
292;DHT22;23311;48.776;9.162;2023-04-19T02:27:28;10.00;95.50
292;DHT22;23311;48.776;9.162;2023-04-19T02:29:57;9.90;95.50
292;DHT22;23311;48.776;9.162;2023-04-19T02:32:25;10.00;95.50
292;DHT22;23311;48.776;9.162;2023-04-19T02:34:53;10.00;95.50
292;DHT22;23311;48.776;9.162;2023-04-19T02:37:21;9.90;95.50
292;DHT22;23311;48.776;9.162;2023-04-19T02:39:49;9.90;95.50
292;DHT22;23311;48.776;9.162;2023-04-19T02:42:17;9.90;95.50
292;DHT22;23311;48.776;9.162;2023-04-19T02:44:45;9.90;95.50
292;DHT22;23311;48.776;9.162;2023-04-19T02:47:15;9.80;95.50
292;DHT22;23311;48.776;9.162;2023-04-19T02:49:43;9.90;95.50
292;DHT22;23311;48.776;9.162;2023-04-19T02:52:11;9.90;95.50
292;DHT22;23311;48.776;9.162;2023-04-19T02:54:39;9.80;95.50
292;DHT22;23311;48.776;9.162;2023-04-19T02:57:07;9.80;95.50
292;DHT22;23311;48.776;9.162;2023-04-19T02:59:35;9.80;95.50
292;DHT22;23311;48.776;9.162;2023-04-19T03:02:03;9.80;95.50
292;DHT22;23311;48.776;9.162;2023-04-19T03:04:33;9.80;95.50
292;DHT22;23311;48.776;9.162;2023-04-19T03:07:02;9.70;95.50
292;DHT22;23311;48.776;9.162;2023-04-19T03:09:30;9.70;95.50
292;DHT22;23311;48.776;9.162;2023-04-19T03:11:58;9.70;95.50
292;DHT22;23311;48.776;9.162;2023-04-19T03:14:26;9.60;95.50
292;DHT22;23311;48.776;9.162;2023-04-19T03:16:54;9.60;95.50
292;DHT22;23311;48.776;9.162;2023-04-19T03:19:23;9.60;95.50
292;DHT22;23311;48.776;9.162;2023-04-19T03:21:52;9.60;95.50
292;DHT22;23311;48.776;9.162;2023-04-19T03:24:26;9.60;95.50
292;DHT22;23311;48.776;9.162;2023-04-19T03:26:54;9.60;95.50
292;DHT22;23311;48.776;9.162;2023-04-19T03:29:23;9.60;95.50
292;DHT22;23311;48.776;9.162;2023-04-19T03:31:51;9.60;95.50
292;DHT22;23311;48.776;9.162;2023-04-19T03:34:19;9.60;95.50
292;DHT22;23311;48.776;9.162;2023-04-19T03:36:47;9.70;95.50
292;DHT22;23311;48.776;9.162;2023-04-19T03:39:16;9.60;95.50
292;DHT22;23311;48.776;9.162;2023-04-19T03:41:44;9.60;95.50
292;DHT22;23311;48.776;9.162;2023-04-19T03:44:12;9.70;95.50
292;DHT22;23311;48.776;9.162;2023-04-19T03:46:40;9.70;95.50
292;DHT22;23311;48.776;9.162;2023-04-19T03:49:09;9.60;95.50
292;DHT22;23311;48.776;9.162;2023-04-19T03:51:37;9.60;95.50
292;DHT22;23311;48.776;9.162;2023-04-19T03:54:05;9.60;95.50
292;DHT22;23311;48.776;9.162;2023-04-19T03:56:34;9.60;95.50
292;DHT22;23311;48.776;9.162;2023-04-19T03:59:02;9.50;95.50
292;DHT22;23311;48.776;9.162;2023-04-19T04:01:30;9.50;95.50
292;DHT22;23311;48.776;9.162;2023-04-19T04:03:58;9.40;95.50
292;DHT22;23311;48.776;9.162;2023-04-19T04:06:30;9.40;95.50
292;DHT22;23311;48.776;9.162;2023-04-19T04:08:58;9.40;95.50
292;DHT22;23311;48.776;9.162;2023-04-19T04:11:26;9.40;95.50
292;DHT22;23311;48.776;9.162;2023-04-19T04:13:56;9.30;95.50
292;DHT22;23311;48.776;9.162;2023-04-19T04:16:24;9.30;95.50
292;DHT22;23311;48.776;9.162;2023-04-19T04:18:52;9.30;95.50
292;DHT22;23311;48.776;9.162;2023-04-19T04:21:20;9.30;95.50
292;DHT22;23311;48.776;9.162;2023-04-19T04:23:50;9.20;95.50
292;DHT22;23311;48.776;9.162;2023-04-19T04:26:19;9.20;95.50
292;DHT22;23311;48.776;9.162;2023-04-19T04:28:47;9.10;95.50
292;DHT22;23311;48.776;9.162;2023-04-19T04:31:17;9.10;95.50
292;DHT22;23311;48.776;9.162;2023-04-19T04:33:45;9.10;95.50
292;DHT22;23311;48.776;9.162;2023-04-19T04:36:15;9.10;95.50
292;DHT22;23311;48.776;9.162;2023-04-19T04:38:43;9.10;95.50
292;DHT22;23311;48.776;9.162;2023-04-19T04:41:11;9.10;95.50
292;DHT22;23311;48.776;9.162;2023-04-19T04:43:39;9.00;95.50
292;DHT22;23311;48.776;9.162;2023-04-19T04:46:08;9.00;95.50
292;DHT22;23311;48.776;9.162;2023-04-19T04:48:37;8.90;95.50
292;DHT22;23311;48.776;9.162;2023-04-19T04:51:06;8.90;95.50
292;DHT22;23311;48.776;9.162;2023-04-19T04:53:34;8.90;95.50
292;DHT22;23311;48.776;9.162;2023-04-19T04:56:02;9.00;95.50
292;DHT22;23311;48.776;9.162;2023-04-19T04:58:30;9.00;95.50
292;DHT22;23311;48.776;9.162;2023-04-19T05:00:58;9.10;95.50
292;DHT22;23311;48.776;9.162;2023-04-19T05:03:26;9.20;95.50
292;DHT22;23311;48.776;9.162;2023-04-19T05:05:56;9.20;95.50
292;DHT22;23311;48.776;9.162;2023-04-19T05:08:25;9.20;95.50
292;DHT22;23311;48.776;9.162;2023-04-19T05:10:54;9.20;95.50
292;DHT22;23311;48.776;9.162;2023-04-19T05:13:22;9.30;95.50
292;DHT22;23311;48.776;9.162;2023-04-19T05:15:50;9.30;95.50
292;DHT22;23311;48.776;9.162;2023-04-19T05:18:18;9.20;95.50
292;DHT22;23311;48.776;9.162;2023-04-19T05:20:46;9.30;95.50
292;DHT22;23311;48.776;9.162;2023-04-19T05:23:15;9.40;95.50
292;DHT22;23311;48.776;9.162;2023-04-19T05:25:44;9.50;95.50
292;DHT22;23311;48.776;9.162;2023-04-19T05:28:12;9.50;95.50
292;DHT22;23311;48.776;9.162;2023-04-19T05:30:40;9.50;95.50
292;DHT22;23311;48.776;9.162;2023-04-19T05:33:08;9.50;95.50
292;DHT22;23311;48.776;9.162;2023-04-19T05:35:36;9.50;95.50
292;DHT22;23311;48.776;9.162;2023-04-19T05:38:04;9.50;95.50
292;DHT22;23311;48.776;9.162;2023-04-19T05:40:34;9.40;95.50
292;DHT22;23311;48.776;9.162;2023-04-19T05:43:02;9.40;95.50
292;DHT22;23311;48.776;9.162;2023-04-19T05:45:30;9.50;95.50
292;DHT22;23311;48.776;9.162;2023-04-19T05:47:58;9.50;95.50
292;DHT22;23311;48.776;9.162;2023-04-19T05:50:26;9.50;95.50
292;DHT22;23311;48.776;9.162;2023-04-19T05:52:54;9.60;95.50
292;DHT22;23311;48.776;9.162;2023-04-19T05:55:24;9.50;95.50
292;DHT22;23311;48.776;9.162;2023-04-19T05:57:54;9.60;95.50
292;DHT22;23311;48.776;9.162;2023-04-19T06:00:22;9.70;95.50
292;DHT22;23311;48.776;9.162;2023-04-19T06:02:55;9.70;95.50
292;DHT22;23311;48.776;9.162;2023-04-19T06:05:31;9.70;95.50
292;DHT22;23311;48.776;9.162;2023-04-19T06:08:00;9.80;95.50
292;DHT22;23311;48.776;9.162;2023-04-19T06:10:29;9.80;95.50
292;DHT22;23311;48.776;9.162;2023-04-19T06:13:18;9.80;95.50
292;DHT22;23311;48.776;9.162;2023-04-19T06:15:47;9.80;95.50
292;DHT22;23311;48.776;9.162;2023-04-19T06:18:15;9.80;95.50
292;DHT22;23311;48.776;9.162;2023-04-19T06:20:46;10.10;95.50
292;DHT22;23311;48.776;9.162;2023-04-19T06:23:14;10.30;95.50
292;DHT22;23311;48.776;9.162;2023-04-19T06:25:44;10.40;95.50
292;DHT22;23311;48.776;9.162;2023-04-19T06:28:14;10.30;95.50
292;DHT22;23311;48.776;9.162;2023-04-19T06:30:43;10.50;95.50
292;DHT22;23311;48.776;9.162;2023-04-19T06:33:11;10.40;95.50
292;DHT22;23311;48.776;9.162;2023-04-19T06:35:39;10.50;95.50
292;DHT22;23311;48.776;9.162;2023-04-19T06:38:08;10.60;95.50
292;DHT22;23311;48.776;9.162;2023-04-19T06:40:36;10.50;95.50
292;DHT22;23311;48.776;9.162;2023-04-19T06:43:05;10.70;95.50
292;DHT22;23311;48.776;9.162;2023-04-19T06:45:33;10.80;95.50
292;DHT22;23311;48.776;9.162;2023-04-19T06:48:04;10.80;95.50
292;DHT22;23311;48.776;9.162;2023-04-19T06:50:35;10.70;95.50
292;DHT22;23311;48.776;9.162;2023-04-19T06:53:03;10.50;95.50
292;DHT22;23311;48.776;9.162;2023-04-19T06:55:31;10.50;95.50
292;DHT22;23311;48.776;9.162;2023-04-19T06:57:59;10.60;95.50
292;DHT22;23311;48.776;9.162;2023-04-19T07:00:27;10.80;95.50
292;DHT22;23311;48.776;9.162;2023-04-19T07:02:55;11.10;95.50
292;DHT22;23311;48.776;9.162;2023-04-19T07:05:27;11.30;95.50
292;DHT22;23311;48.776;9.162;2023-04-19T07:07:57;11.70;95.50
292;DHT22;23311;48.776;9.162;2023-04-19T07:10:26;11.50;95.50
292;DHT22;23311;48.776;9.162;2023-04-19T07:12:54;11.60;95.50
292;DHT22;23311;48.776;9.162;2023-04-19T07:15:22;11.90;95.50
292;DHT22;23311;48.776;9.162;2023-04-19T07:17:50;12.10;95.50
292;DHT22;23311;48.776;9.162;2023-04-19T07:20:18;12.00;95.50
292;DHT22;23311;48.776;9.162;2023-04-19T07:22:48;12.00;95.50
292;DHT22;23311;48.776;9.162;2023-04-19T07:25:16;12.20;95.50
292;DHT22;23311;48.776;9.162;2023-04-19T07:27:44;12.50;95.50
292;DHT22;23311;48.776;9.162;2023-04-19T07:30:13;12.80;95.50
292;DHT22;23311;48.776;9.162;2023-04-19T07:32:41;12.80;95.50
292;DHT22;23311;48.776;9.162;2023-04-19T07:35:09;12.80;95.50
292;DHT22;23311;48.776;9.162;2023-04-19T07:37:37;12.40;95.50
292;DHT22;23311;48.776;9.162;2023-04-19T07:40:08;12.40;95.50
292;DHT22;23311;48.776;9.162;2023-04-19T07:42:36;12.80;95.50
292;DHT22;23311;48.776;9.162;2023-04-19T07:45:05;13.30;95.50
292;DHT22;23311;48.776;9.162;2023-04-19T07:47:34;13.60;95.20
292;DHT22;23311;48.776;9.162;2023-04-19T07:50:03;13.90;94.40
292;DHT22;23311;48.776;9.162;2023-04-19T07:52:33;14.30;93.10
292;DHT22;23311;48.776;9.162;2023-04-19T07:55:01;14.30;92.30
292;DHT22;23311;48.776;9.162;2023-04-19T07:57:31;13.50;93.80
292;DHT22;23311;48.776;9.162;2023-04-19T07:59:59;13.10;95.50
292;DHT22;23311;48.776;9.162;2023-04-19T08:02:29;13.90;94.60
292;DHT22;23311;48.776;9.162;2023-04-19T08:04:59;15.10;90.20
292;DHT22;23311;48.776;9.162;2023-04-19T08:07:28;15.20;90.10
292;DHT22;23311;48.776;9.162;2023-04-19T08:09:56;15.40;89.20
292;DHT22;23311;48.776;9.162;2023-04-19T08:12:24;17.00;86.50
292;DHT22;23311;48.776;9.162;2023-04-19T08:15:07;18.60;81.10
292;DHT22;23311;48.776;9.162;2023-04-19T08:17:55;17.40;82.60
292;DHT22;23311;48.776;9.162;2023-04-19T08:20:23;17.70;82.30
292;DHT22;23311;48.776;9.162;2023-04-19T08:22:52;17.30;83.00
292;DHT22;23311;48.776;9.162;2023-04-19T08:25:20;16.60;84.10
292;DHT22;23311;48.776;9.162;2023-04-19T08:27:54;15.90;86.40
292;DHT22;23311;48.776;9.162;2023-04-19T08:30:24;15.30;88.00
292;DHT22;23311;48.776;9.162;2023-04-19T08:32:52;14.70;88.80
292;DHT22;23311;48.776;9.162;2023-04-19T08:35:23;14.20;89.80
292;DHT22;23311;48.776;9.162;2023-04-19T08:37:51;13.90;90.10
292;DHT22;23311;48.776;9.162;2023-04-19T08:40:19;13.80;90.50
292;DHT22;23311;48.776;9.162;2023-04-19T08:42:48;14.00;90.60
292;DHT22;23311;48.776;9.162;2023-04-19T08:45:16;14.00;89.80
292;DHT22;23311;48.776;9.162;2023-04-19T08:47:57;14.10;89.50
292;DHT22;23311;48.776;9.162;2023-04-19T08:50:28;14.40;88.80
292;DHT22;23311;48.776;9.162;2023-04-19T08:53:11;15.00;87.00
292;DHT22;23311;48.776;9.162;2023-04-19T08:55:50;15.00;87.30
292;DHT22;23311;48.776;9.162;2023-04-19T08:58:40;14.60;87.90
292;DHT22;23311;48.776;9.162;2023-04-19T09:01:11;14.90;87.40
292;DHT22;23311;48.776;9.162;2023-04-19T09:04:00;14.40;88.60
292;DHT22;23311;48.776;9.162;2023-04-19T09:06:48;14.60;88.30
292;DHT22;23311;48.776;9.162;2023-04-19T09:09:17;15.40;86.10
292;DHT22;23311;48.776;9.162;2023-04-19T09:12:03;16.40;84.30
292;DHT22;23311;48.776;9.162;2023-04-19T09:14:44;16.90;82.10
292;DHT22;23311;48.776;9.162;2023-04-19T09:17:26;17.00;81.70
292;DHT22;23311;48.776;9.162;2023-04-19T09:19:56;16.80;82.40
292;DHT22;23311;48.776;9.162;2023-04-19T09:22:25;16.50;82.40
292;DHT22;23311;48.776;9.162;2023-04-19T09:24:53;16.40;82.70
292;DHT22;23311;48.776;9.162;2023-04-19T09:27:26;16.90;82.30
292;DHT22;23311;48.776;9.162;2023-04-19T09:29:55;18.80;78.70
292;DHT22;23311;48.776;9.162;2023-04-19T09:32:23;19.70;75.50
292;DHT22;23311;48.776;9.162;2023-04-19T09:34:53;18.50;77.70
292;DHT22;23311;48.776;9.162;2023-04-19T09:37:23;17.60;80.00
292;DHT22;23311;48.776;9.162;2023-04-19T09:39:55;16.60;83.00
292;DHT22;23311;48.776;9.162;2023-04-19T09:42:23;16.00;84.30
292;DHT22;23311;48.776;9.162;2023-04-19T09:45:11;16.20;84.20
292;DHT22;23311;48.776;9.162;2023-04-19T09:48:00;16.40;83.10
292;DHT22;23311;48.776;9.162;2023-04-19T09:50:30;16.60;83.10
292;DHT22;23311;48.776;9.162;2023-04-19T09:53:03;16.60;82.90
292;DHT22;23311;48.776;9.162;2023-04-19T09:55:31;16.40;83.00
292;DHT22;23311;48.776;9.162;2023-04-19T09:58:22;15.70;84.10
292;DHT22;23311;48.776;9.162;2023-04-19T10:00:58;15.50;85.40
292;DHT22;23311;48.776;9.162;2023-04-19T10:03:41;16.00;84.80
292;DHT22;23311;48.776;9.162;2023-04-19T10:06:10;16.30;82.90
292;DHT22;23311;48.776;9.162;2023-04-19T10:09:00;16.60;81.80
292;DHT22;23311;48.776;9.162;2023-04-19T10:11:31;17.30;80.30
292;DHT22;23311;48.776;9.162;2023-04-19T10:14:04;17.70;79.20
292;DHT22;23311;48.776;9.162;2023-04-19T10:16:34;17.70;78.60
292;DHT22;23311;48.776;9.162;2023-04-19T10:19:04;17.50;79.30
292;DHT22;23311;48.776;9.162;2023-04-19T10:21:36;17.40;79.20
292;DHT22;23311;48.776;9.162;2023-04-19T10:24:07;17.00;81.20
292;DHT22;23311;48.776;9.162;2023-04-19T10:27:08;16.90;81.40
292;DHT22;23311;48.776;9.162;2023-04-19T10:29:56;16.30;82.40
292;DHT22;23311;48.776;9.162;2023-04-19T10:32:29;16.30;83.50
292;DHT22;23311;48.776;9.162;2023-04-19T10:35:01;16.50;83.20
292;DHT22;23311;48.776;9.162;2023-04-19T10:37:31;16.50;83.50
292;DHT22;23311;48.776;9.162;2023-04-19T10:40:00;16.50;83.30
292;DHT22;23311;48.776;9.162;2023-04-19T10:45:33;16.30;83.90
292;DHT22;23311;48.776;9.162;2023-04-19T10:48:02;15.40;86.20
292;DHT22;23311;48.776;9.162;2023-04-19T10:53:45;15.10;87.20
292;DHT22;23311;48.776;9.162;2023-04-19T10:56:15;14.40;88.30
292;DHT22;23311;48.776;9.162;2023-04-19T10:59:15;14.30;89.20
292;DHT22;23311;48.776;9.162;2023-04-19T11:01:51;14.40;89.60
292;DHT22;23311;48.776;9.162;2023-04-19T11:07:07;14.40;89.70
292;DHT22;23311;48.776;9.162;2023-04-19T11:09:36;14.60;89.90
292;DHT22;23311;48.776;9.162;2023-04-19T11:12:09;15.10;88.30
292;DHT22;23311;48.776;9.162;2023-04-19T11:14:39;15.60;87.50
292;DHT22;23311;48.776;9.162;2023-04-19T11:17:16;15.80;86.50
292;DHT22;23311;48.776;9.162;2023-04-19T11:19:52;15.70;86.10
292;DHT22;23311;48.776;9.162;2023-04-19T11:22:25;15.00;87.50
292;DHT22;23311;48.776;9.162;2023-04-19T11:24:53;14.60;88.90
292;DHT22;23311;48.776;9.162;2023-04-19T11:27:23;14.20;90.30
292;DHT22;23311;48.776;9.162;2023-04-19T11:29:51;14.10;91.20
292;DHT22;23311;48.776;9.162;2023-04-19T11:32:20;13.50;93.00
292;DHT22;23311;48.776;9.162;2023-04-19T11:34:49;13.70;92.90
292;DHT22;23311;48.776;9.162;2023-04-19T11:37:17;13.80;92.60
292;DHT22;23311;48.776;9.162;2023-04-19T11:39:46;13.70;93.00
292;DHT22;23311;48.776;9.162;2023-04-19T11:42:18;13.40;93.80
292;DHT22;23311;48.776;9.162;2023-04-19T11:44:51;13.20;94.80
292;DHT22;23311;48.776;9.162;2023-04-19T11:47:19;13.00;95.50
292;DHT22;23311;48.776;9.162;2023-04-19T11:49:47;12.90;95.50
292;DHT22;23311;48.776;9.162;2023-04-19T11:52:20;12.70;95.50
292;DHT22;23311;48.776;9.162;2023-04-19T11:54:48;12.30;95.50
292;DHT22;23311;48.776;9.162;2023-04-19T11:57:26;12.20;95.50
292;DHT22;23311;48.776;9.162;2023-04-19T12:00:04;12.00;95.50
292;DHT22;23311;48.776;9.162;2023-04-19T12:02:37;12.00;95.50
292;DHT22;23311;48.776;9.162;2023-04-19T12:05:07;11.90;95.50
292;DHT22;23311;48.776;9.162;2023-04-19T12:07:36;11.80;95.50
292;DHT22;23311;48.776;9.162;2023-04-19T12:10:08;11.40;95.50
292;DHT22;23311;48.776;9.162;2023-04-19T12:12:37;11.20;95.50
292;DHT22;23311;48.776;9.162;2023-04-19T12:15:07;11.00;95.50
292;DHT22;23311;48.776;9.162;2023-04-19T12:17:55;10.90;95.50
292;DHT22;23311;48.776;9.162;2023-04-19T12:20:30;11.00;95.50
292;DHT22;23311;48.776;9.162;2023-04-19T12:22:59;10.90;95.50
292;DHT22;23311;48.776;9.162;2023-04-19T12:25:29;10.90;95.50
292;DHT22;23311;48.776;9.162;2023-04-19T12:27:57;10.90;95.50
292;DHT22;23311;48.776;9.162;2023-04-19T12:30:26;10.80;95.50
292;DHT22;23311;48.776;9.162;2023-04-19T12:32:54;10.50;95.50
292;DHT22;23311;48.776;9.162;2023-04-19T12:35:25;10.40;95.50
292;DHT22;23311;48.776;9.162;2023-04-19T12:37:54;10.30;95.50
292;DHT22;23311;48.776;9.162;2023-04-19T12:40:24;10.10;95.50
292;DHT22;23311;48.776;9.162;2023-04-19T12:42:53;10.00;95.50
292;DHT22;23311;48.776;9.162;2023-04-19T12:45:21;9.90;95.50
292;DHT22;23311;48.776;9.162;2023-04-19T12:47:50;9.90;95.50
292;DHT22;23311;48.776;9.162;2023-04-19T12:50:18;9.90;95.50
292;DHT22;23311;48.776;9.162;2023-04-19T12:52:46;9.80;95.50
292;DHT22;23311;48.776;9.162;2023-04-19T12:55:15;9.80;95.50
292;DHT22;23311;48.776;9.162;2023-04-19T12:57:43;9.80;95.50
292;DHT22;23311;48.776;9.162;2023-04-19T13:00:11;9.90;95.50
292;DHT22;23311;48.776;9.162;2023-04-19T13:02:40;9.90;95.50
292;DHT22;23311;48.776;9.162;2023-04-19T13:05:09;9.80;95.50
292;DHT22;23311;48.776;9.162;2023-04-19T13:07:38;9.90;95.50
292;DHT22;23311;48.776;9.162;2023-04-19T13:10:07;9.90;95.50
292;DHT22;23311;48.776;9.162;2023-04-19T13:12:35;9.80;95.50
292;DHT22;23311;48.776;9.162;2023-04-19T13:15:04;9.80;95.50
292;DHT22;23311;48.776;9.162;2023-04-19T13:17:34;9.80;95.50
292;DHT22;23311;48.776;9.162;2023-04-19T13:20:03;9.70;95.50
292;DHT22;23311;48.776;9.162;2023-04-19T13:22:33;9.80;95.50
292;DHT22;23311;48.776;9.162;2023-04-19T13:25:01;9.80;95.50
292;DHT22;23311;48.776;9.162;2023-04-19T13:27:30;9.80;95.50
292;DHT22;23311;48.776;9.162;2023-04-19T13:29:58;9.80;95.50
292;DHT22;23311;48.776;9.162;2023-04-19T13:32:26;9.70;95.50
292;DHT22;23311;48.776;9.162;2023-04-19T13:34:55;9.70;95.50
292;DHT22;23311;48.776;9.162;2023-04-19T13:37:23;9.80;95.50
292;DHT22;23311;48.776;9.162;2023-04-19T13:39:53;9.90;95.50
292;DHT22;23311;48.776;9.162;2023-04-19T13:42:41;10.00;95.50
292;DHT22;23311;48.776;9.162;2023-04-19T13:45:09;10.00;95.50
292;DHT22;23311;48.776;9.162;2023-04-19T13:47:37;10.10;95.50
292;DHT22;23311;48.776;9.162;2023-04-19T13:50:06;10.00;95.50
292;DHT22;23311;48.776;9.162;2023-04-19T13:52:35;10.10;95.50
292;DHT22;23311;48.776;9.162;2023-04-19T13:55:04;10.30;95.50
292;DHT22;23311;48.776;9.162;2023-04-19T13:57:33;10.40;95.50
292;DHT22;23311;48.776;9.162;2023-04-19T14:00:01;10.40;95.50
292;DHT22;23311;48.776;9.162;2023-04-19T14:02:29;10.60;95.50
292;DHT22;23311;48.776;9.162;2023-04-19T14:04:57;10.80;95.50
292;DHT22;23311;48.776;9.162;2023-04-19T14:07:26;10.90;95.50
292;DHT22;23311;48.776;9.162;2023-04-19T14:09:54;11.10;95.50
292;DHT22;23311;48.776;9.162;2023-04-19T14:12:23;11.30;95.50
292;DHT22;23311;48.776;9.162;2023-04-19T14:14:51;11.40;95.50
292;DHT22;23311;48.776;9.162;2023-04-19T14:17:19;11.60;95.50
292;DHT22;23311;48.776;9.162;2023-04-19T14:19:47;11.70;95.50
292;DHT22;23311;48.776;9.162;2023-04-19T14:22:15;11.70;95.50
292;DHT22;23311;48.776;9.162;2023-04-19T14:24:43;11.90;95.50
292;DHT22;23311;48.776;9.162;2023-04-19T14:27:12;11.90;95.50
292;DHT22;23311;48.776;9.162;2023-04-19T14:29:42;12.30;95.50
292;DHT22;23311;48.776;9.162;2023-04-19T14:32:10;12.50;95.50
292;DHT22;23311;48.776;9.162;2023-04-19T14:34:52;12.70;95.50
292;DHT22;23311;48.776;9.162;2023-04-19T14:37:21;12.80;95.50
292;DHT22;23311;48.776;9.162;2023-04-19T14:39:49;12.70;95.50
292;DHT22;23311;48.776;9.162;2023-04-19T14:42:18;12.60;95.50
292;DHT22;23311;48.776;9.162;2023-04-19T14:44:50;12.60;95.50
292;DHT22;23311;48.776;9.162;2023-04-19T14:47:19;12.40;95.50
292;DHT22;23311;48.776;9.162;2023-04-19T14:49:47;12.40;95.50
292;DHT22;23311;48.776;9.162;2023-04-19T14:52:16;12.50;95.50
292;DHT22;23311;48.776;9.162;2023-04-19T14:54:44;12.40;95.50
292;DHT22;23311;48.776;9.162;2023-04-19T14:57:12;12.30;95.50
292;DHT22;23311;48.776;9.162;2023-04-19T14:59:41;12.30;95.50
292;DHT22;23311;48.776;9.162;2023-04-19T15:02:10;12.20;95.50
292;DHT22;23311;48.776;9.162;2023-04-19T15:04:39;11.90;95.50
292;DHT22;23311;48.776;9.162;2023-04-19T15:07:08;11.70;95.50
292;DHT22;23311;48.776;9.162;2023-04-19T15:09:36;11.60;95.50
292;DHT22;23311;48.776;9.162;2023-04-19T15:12:06;11.50;95.50
292;DHT22;23311;48.776;9.162;2023-04-19T15:14:34;11.50;95.50
292;DHT22;23311;48.776;9.162;2023-04-19T15:17:03;11.60;95.50
292;DHT22;23311;48.776;9.162;2023-04-19T15:19:32;11.60;95.50
292;DHT22;23311;48.776;9.162;2023-04-19T15:22:00;11.70;95.50
292;DHT22;23311;48.776;9.162;2023-04-19T15:24:29;11.90;95.50
292;DHT22;23311;48.776;9.162;2023-04-19T15:26:58;12.00;95.50
292;DHT22;23311;48.776;9.162;2023-04-19T15:29:27;12.20;95.50
292;DHT22;23311;48.776;9.162;2023-04-19T15:31:55;12.10;95.50
292;DHT22;23311;48.776;9.162;2023-04-19T15:34:23;12.00;95.50
292;DHT22;23311;48.776;9.162;2023-04-19T15:36:53;12.00;95.50
292;DHT22;23311;48.776;9.162;2023-04-19T15:39:21;12.00;95.50
292;DHT22;23311;48.776;9.162;2023-04-19T15:41:49;12.10;95.50
292;DHT22;23311;48.776;9.162;2023-04-19T15:44:18;12.40;95.50
292;DHT22;23311;48.776;9.162;2023-04-19T15:46:46;12.80;95.50
292;DHT22;23311;48.776;9.162;2023-04-19T15:49:14;13.10;95.50
292;DHT22;23311;48.776;9.162;2023-04-19T15:51:42;13.50;95.50
292;DHT22;23311;48.776;9.162;2023-04-19T15:54:13;12.70;95.50
292;DHT22;23311;48.776;9.162;2023-04-19T15:56:42;12.80;95.50
292;DHT22;23311;48.776;9.162;2023-04-19T15:59:10;12.90;95.50
292;DHT22;23311;48.776;9.162;2023-04-19T16:01:38;13.10;95.50
292;DHT22;23311;48.776;9.162;2023-04-19T16:04:06;13.20;95.50
292;DHT22;23311;48.776;9.162;2023-04-19T16:06:34;13.20;95.50
292;DHT22;23311;48.776;9.162;2023-04-19T16:09:02;13.10;95.50
292;DHT22;23311;48.776;9.162;2023-04-19T16:11:33;13.20;95.50
292;DHT22;23311;48.776;9.162;2023-04-19T16:14:01;13.40;95.50
292;DHT22;23311;48.776;9.162;2023-04-19T16:16:29;13.50;95.50
292;DHT22;23311;48.776;9.162;2023-04-19T16:19:00;13.40;95.20
292;DHT22;23311;48.776;9.162;2023-04-19T16:21:28;13.30;95.10
292;DHT22;23311;48.776;9.162;2023-04-19T16:23:57;13.20;95.50
292;DHT22;23311;48.776;9.162;2023-04-19T16:26:26;13.00;95.50
292;DHT22;23311;48.776;9.162;2023-04-19T16:28:56;12.90;95.50
292;DHT22;23311;48.776;9.162;2023-04-19T16:31:25;13.50;95.50
292;DHT22;23311;48.776;9.162;2023-04-19T16:33:53;14.30;93.80